createdAt,value
2019-02-15T00:02:28.291Z,28.98
2019-02-15T00:04:56.647Z,28.60
2019-02-15T00:07:24.973Z,25.87
2019-02-15T00:09:53.403Z,29.30
2019-02-15T00:12:21.771Z,27.73
2019-02-15T00:14:50.106Z,34.20
2019-02-15T00:17:22.125Z,29.33
2019-02-15T00:19:52.474Z,24.80
2019-02-15T00:22:20.805Z,30.33
2019-02-15T00:24:49.183Z,24.97
2019-02-15T00:27:17.517Z,24.93
2019-02-15T00:29:45.906Z,24.60
2019-02-15T00:32:14.396Z,25.53
2019-02-15T00:34:42.717Z,22.77
2019-02-15T00:37:11.625Z,23.13
2019-02-15T00:39:39.972Z,22.50
2019-02-15T00:42:08.748Z,23.57
2019-02-15T00:44:37.628Z,27.37
2019-02-15T00:47:10.020Z,24.10
2019-02-15T00:49:40.319Z,21.53
2019-02-15T00:52:11.053Z,20.60
2019-02-15T00:54:43.249Z,26.23
2019-02-15T00:57:16.226Z,18.93
2019-02-15T00:59:47.193Z,19.10
2019-02-15T01:02:18.080Z,17.45
2019-02-15T01:04:49.946Z,20.13
2019-02-15T01:07:19.712Z,17.00
2019-02-15T01:09:50.817Z,20.40
2019-02-15T01:12:21.910Z,21.60
2019-02-15T01:14:50.299Z,21.67
2019-02-15T01:17:18.650Z,17.12
2019-02-15T01:19:47.053Z,18.10
2019-02-15T01:22:15.476Z,17.47
2019-02-15T01:24:43.840Z,17.03
2019-02-15T01:27:15.078Z,16.40
2019-02-15T01:29:48.075Z,17.07
2019-02-15T01:32:19.175Z,19.73
2019-02-15T01:34:50.233Z,20.27
2019-02-15T01:37:18.550Z,16.53
2019-02-15T01:39:50.535Z,18.43
2019-02-15T01:42:20.111Z,18.83
2019-02-15T01:44:50.872Z,15.67
2019-02-15T01:47:19.578Z,18.30
2019-02-15T01:49:48.075Z,18.30
2019-02-15T01:52:16.463Z,20.73
2019-02-15T01:54:44.830Z,20.45
2019-02-15T01:57:13.375Z,20.60
2019-02-15T01:59:41.878Z,18.73
2019-02-15T02:02:10.615Z,18.40
2019-02-15T02:04:39.712Z,17.13
2019-02-15T02:07:08.073Z,18.40
2019-02-15T02:09:36.412Z,16.07
2019-02-15T02:12:05.328Z,18.30
2019-02-15T02:14:33.664Z,19.47
2019-02-15T02:17:02.173Z,17.07
2019-02-15T02:19:30.520Z,21.30
2019-02-15T02:21:59.040Z,16.10
2019-02-15T02:24:27.366Z,18.53
2019-02-15T02:26:55.718Z,18.47
2019-02-15T02:29:24.064Z,17.40
2019-02-15T02:31:52.410Z,21.97
2019-02-15T02:34:20.809Z,21.17
2019-02-15T02:36:50.683Z,20.20
2019-02-15T02:39:19.075Z,17.53
2019-02-15T02:41:47.479Z,24.53
2019-02-15T02:44:15.911Z,26.83
2019-02-15T02:46:44.306Z,17.40
2019-02-15T02:49:12.924Z,19.23
2019-02-15T02:51:41.819Z,19.32
2019-02-15T02:54:10.323Z,19.97
2019-02-15T02:56:38.655Z,18.33
2019-02-15T02:59:07.029Z,18.48
2019-02-15T03:01:35.449Z,21.13
2019-02-15T03:04:03.981Z,19.32
2019-02-15T03:06:32.310Z,18.63
2019-02-15T03:09:00.656Z,24.12
2019-02-15T03:11:29.075Z,20.83
2019-02-15T03:13:57.424Z,23.93
2019-02-15T03:16:25.782Z,17.73
2019-02-15T03:18:54.107Z,22.63
2019-02-15T03:21:22.451Z,20.33
2019-02-15T03:23:50.826Z,17.65
2019-02-15T03:26:19.259Z,19.67
2019-02-15T03:28:47.619Z,20.30
2019-02-15T03:31:15.964Z,17.62
2019-02-15T03:33:44.342Z,22.90
2019-02-15T03:36:15.707Z,21.70
2019-02-15T03:38:47.879Z,16.53
2019-02-15T03:41:18.881Z,20.80
2019-02-15T03:43:47.226Z,19.57
2019-02-15T03:46:15.586Z,20.90
2019-02-15T03:48:43.919Z,22.87
2019-02-15T03:51:12.819Z,16.05
2019-02-15T03:53:41.150Z,20.23
2019-02-15T03:56:09.899Z,15.43
2019-02-15T03:58:38.342Z,19.37
2019-02-15T04:01:06.800Z,16.83
2019-02-15T04:03:35.190Z,19.27
2019-02-15T04:06:03.680Z,21.53
2019-02-15T04:08:32.151Z,18.20
2019-02-15T04:11:00.491Z,20.07
2019-02-15T04:13:28.958Z,19.07
2019-02-15T04:15:57.316Z,18.17
2019-02-15T04:18:25.671Z,16.32
2019-02-15T04:20:54.026Z,18.07
2019-02-15T04:23:22.370Z,19.23
2019-02-15T04:25:50.710Z,18.40
2019-02-15T04:28:19.106Z,14.40
2019-02-15T04:30:47.450Z,15.03
2019-02-15T04:33:15.793Z,21.37
2019-02-15T04:35:44.176Z,16.35
2019-02-15T04:38:12.812Z,26.43
2019-02-15T04:40:41.165Z,14.00
2019-02-15T04:43:09.717Z,15.73
2019-02-15T04:45:38.074Z,15.23
2019-02-15T04:48:06.433Z,13.70
2019-02-15T04:50:34.753Z,18.17
2019-02-15T04:53:03.310Z,22.77
2019-02-15T04:55:31.721Z,12.50
2019-02-15T04:58:00.070Z,18.10
2019-02-15T05:00:28.406Z,13.75
2019-02-15T05:02:57.559Z,18.32
2019-02-15T05:05:25.955Z,18.93
2019-02-15T05:07:54.384Z,14.23
2019-02-15T05:10:22.744Z,22.30
2019-02-15T05:12:51.105Z,17.30
2019-02-15T05:15:19.536Z,21.13
2019-02-15T05:17:48.005Z,29.50
2019-02-15T05:20:16.335Z,22.40
2019-02-15T05:22:44.700Z,24.03
2019-02-15T05:25:13.528Z,22.33
2019-02-15T05:27:41.875Z,14.57
2019-02-15T05:30:10.645Z,18.63
2019-02-15T05:32:38.994Z,20.63
2019-02-15T05:35:07.457Z,20.60
2019-02-15T05:40:40.958Z,17.23
2019-02-15T05:43:09.572Z,17.50
2019-02-15T05:45:37.909Z,16.70
2019-02-15T05:48:06.743Z,14.55
2019-02-15T05:50:35.093Z,12.30
2019-02-15T05:53:03.537Z,15.83
2019-02-15T05:55:31.880Z,15.78
2019-02-15T05:58:00.210Z,15.73
2019-02-15T06:00:36.729Z,18.30
2019-02-15T06:02:58.897Z,17.30
2019-02-15T06:05:28.002Z,18.35
2019-02-15T06:07:56.329Z,15.77
2019-02-15T06:10:25.392Z,15.40
2019-02-15T06:12:53.713Z,14.83
2019-02-15T06:15:22.058Z,13.10
2019-02-15T06:17:50.434Z,14.27
2019-02-15T06:20:18.786Z,24.50
2019-02-15T06:22:47.177Z,16.93
2019-02-15T06:25:15.518Z,19.57
2019-02-15T06:27:43.845Z,18.10
2019-02-15T06:30:12.198Z,13.33
2019-02-15T06:32:40.622Z,16.20
2019-02-15T06:35:09.793Z,16.60
2019-02-15T06:37:38.134Z,17.53
2019-02-15T06:40:07.711Z,16.95
2019-02-15T06:42:36.047Z,16.00
2019-02-15T06:45:06.016Z,14.40
2019-02-15T06:47:34.351Z,13.10
2019-02-15T06:50:02.724Z,14.77
2019-02-15T06:52:31.057Z,16.75
2019-02-15T06:54:59.389Z,21.67
2019-02-15T06:57:27.756Z,16.73
2019-02-15T06:59:59.851Z,12.07
2019-02-15T07:02:31.056Z,17.50
2019-02-15T07:05:02.184Z,11.77
2019-02-15T07:07:30.545Z,18.80
2019-02-15T07:09:58.866Z,16.03
2019-02-15T07:12:27.249Z,13.00
2019-02-15T07:14:55.582Z,11.40
2019-02-15T07:17:23.921Z,11.73
2019-02-15T07:19:52.284Z,13.78
2019-02-15T07:22:20.600Z,10.87
2019-02-15T07:24:48.991Z,17.93
2019-02-15T07:27:17.326Z,18.17
2019-02-15T07:29:45.658Z,13.10
2019-02-15T07:32:13.983Z,12.13
2019-02-15T07:34:42.350Z,14.23
2019-02-15T07:37:10.703Z,14.60
2019-02-15T07:39:39.030Z,11.30
2019-02-15T07:42:07.609Z,13.27
2019-02-15T07:44:35.944Z,16.40
2019-02-15T07:47:04.269Z,17.40
2019-02-15T07:49:32.635Z,13.33
2019-02-15T07:52:01.831Z,12.13
2019-02-15T07:54:30.261Z,12.33
2019-02-15T07:56:58.593Z,17.07
2019-02-15T07:59:26.943Z,18.10
2019-02-15T08:02:01.592Z,15.17
2019-02-15T08:04:25.675Z,15.65
2019-02-15T08:06:54.029Z,15.67
2019-02-15T08:09:22.816Z,16.02
2019-02-15T08:11:51.149Z,13.53
2019-02-15T08:14:19.469Z,14.10
2019-02-15T08:16:47.836Z,14.23
2019-02-15T08:19:16.135Z,16.20
2019-02-15T08:21:44.475Z,12.40
2019-02-15T08:24:12.800Z,14.03
2019-02-15T08:26:41.227Z,14.70
2019-02-15T08:29:09.550Z,11.77
2019-02-15T08:31:37.911Z,16.90
2019-02-15T08:34:06.474Z,20.20
2019-02-15T08:36:34.800Z,21.50
2019-02-15T08:39:05.119Z,17.60
2019-02-15T08:41:33.470Z,19.50
2019-02-15T08:44:02.187Z,16.17
2019-02-15T08:46:30.558Z,17.37
2019-02-15T08:48:58.880Z,14.47
2019-02-15T08:51:27.211Z,14.87
2019-02-15T08:53:55.560Z,17.60
2019-02-15T08:56:23.874Z,18.60
2019-02-15T08:58:52.226Z,14.65
2019-02-15T09:01:20.568Z,15.93
2019-02-15T09:03:48.934Z,11.63
2019-02-15T09:06:17.256Z,15.00
2019-02-15T09:08:45.599Z,11.60
2019-02-15T09:11:13.935Z,19.30
2019-02-15T09:13:42.279Z,16.07
2019-02-15T09:16:10.804Z,14.50
2019-02-15T09:18:39.234Z,11.87
2019-02-15T09:21:07.879Z,17.37
2019-02-15T09:23:36.219Z,15.70
2019-02-15T09:26:04.621Z,13.10
2019-02-15T09:28:35.617Z,11.60
2019-02-15T09:31:04.005Z,17.27
2019-02-15T09:33:32.453Z,20.70
2019-02-15T09:36:00.780Z,14.57
2019-02-15T09:38:29.115Z,17.53
2019-02-15T09:40:57.674Z,17.80
2019-02-15T09:43:26.001Z,17.37
2019-02-15T09:45:54.449Z,14.50
2019-02-15T09:48:22.761Z,15.40
2019-02-15T09:50:51.255Z,19.15
2019-02-15T09:53:20.627Z,13.68
2019-02-15T09:55:48.990Z,13.17
2019-02-15T09:58:17.335Z,12.50
2019-02-15T10:00:45.664Z,13.10
2019-02-15T10:03:13.988Z,16.37
2019-02-15T10:05:42.348Z,13.63
2019-02-15T10:08:10.701Z,21.37
2019-02-15T10:10:39.027Z,14.97
2019-02-15T10:13:07.699Z,14.20
2019-02-15T10:15:36.047Z,13.90
2019-02-15T10:18:04.658Z,13.13
2019-02-15T10:20:32.966Z,21.20
2019-02-15T10:23:01.451Z,16.55
2019-02-15T10:25:29.804Z,19.23
2019-02-15T10:27:58.224Z,17.00
2019-02-15T10:30:26.656Z,16.47
2019-02-15T10:32:54.990Z,14.47
2019-02-15T10:35:23.333Z,12.87
2019-02-15T10:37:51.725Z,14.50
2019-02-15T10:40:20.036Z,12.93
2019-02-15T10:42:48.389Z,14.43
2019-02-15T10:45:16.669Z,16.80
2019-02-15T10:47:45.052Z,21.37
2019-02-15T10:50:13.535Z,14.87
2019-02-15T10:52:41.933Z,19.80
2019-02-15T10:55:10.930Z,14.03
2019-02-15T10:57:39.270Z,13.30
2019-02-15T11:00:13.620Z,23.07
2019-02-15T11:02:42.010Z,15.40
2019-02-15T11:05:11.174Z,19.40
2019-02-15T11:07:39.511Z,15.10
2019-02-15T11:10:09.312Z,26.57
2019-02-15T11:12:37.773Z,18.13
2019-02-15T11:15:09.970Z,18.42
2019-02-15T11:17:38.316Z,15.35
2019-02-15T11:20:10.404Z,20.60
2019-02-15T11:22:38.761Z,17.70
2019-02-15T11:25:09.685Z,16.17
2019-02-15T11:27:38.030Z,16.60
2019-02-15T11:30:10.435Z,17.00
2019-02-15T11:32:38.783Z,21.30
2019-02-15T11:35:10.121Z,20.40
2019-02-15T11:37:38.462Z,16.93
2019-02-15T11:40:09.798Z,16.73
2019-02-15T11:42:38.114Z,18.35
2019-02-15T11:45:10.341Z,17.45
2019-02-15T11:47:38.841Z,21.30
2019-02-15T11:50:10.541Z,18.07
2019-02-15T11:52:38.940Z,19.90
2019-02-15T11:55:09.787Z,16.47
2019-02-15T11:57:38.101Z,16.00
2019-02-15T12:00:14.136Z,21.52
2019-02-15T12:02:39.947Z,19.00
2019-02-15T12:05:09.638Z,19.67
2019-02-15T12:07:38.034Z,19.30
2019-02-15T12:10:09.576Z,29.23
2019-02-15T12:12:37.950Z,15.40
2019-02-15T12:15:09.409Z,14.90
2019-02-15T12:17:37.744Z,16.23
2019-02-15T12:20:10.099Z,16.03
2019-02-15T12:22:38.427Z,18.93
2019-02-15T12:25:07.854Z,30.50
2019-02-15T12:27:36.184Z,13.37
2019-02-15T12:30:09.412Z,16.07
2019-02-15T12:32:37.749Z,14.45
2019-02-15T12:35:08.280Z,22.57
2019-02-15T12:37:36.690Z,14.47
2019-02-15T12:40:07.405Z,17.67
2019-02-15T12:42:35.731Z,16.07
2019-02-15T12:45:06.978Z,19.53
2019-02-15T12:47:35.309Z,16.67
2019-02-15T12:50:07.688Z,12.87
2019-02-15T12:52:36.007Z,13.18
2019-02-15T12:55:04.397Z,11.40
2019-02-15T12:57:32.764Z,14.47
2019-02-15T13:00:01.084Z,12.80
2019-02-15T13:02:29.425Z,14.90
2019-02-15T13:04:58.205Z,11.97
2019-02-15T13:07:26.563Z,10.03
2019-02-15T13:09:54.904Z,13.03
2019-02-15T13:12:23.236Z,13.22
2019-02-15T13:14:51.578Z,11.60
2019-02-15T13:17:24.788Z,13.50
2019-02-15T13:19:50.250Z,16.63
2019-02-15T13:22:20.167Z,10.13
2019-02-15T13:24:49.591Z,13.67
2019-02-15T13:27:17.936Z,11.07
2019-02-15T13:29:46.315Z,10.20
2019-02-15T13:32:14.670Z,13.00
2019-02-15T13:34:43.113Z,8.80
2019-02-15T13:37:11.490Z,9.83
2019-02-15T13:39:39.804Z,12.63
2019-02-15T13:42:08.481Z,12.23
2019-02-15T13:44:36.911Z,11.13
2019-02-15T13:47:05.248Z,9.63
2019-02-15T13:49:33.676Z,6.70
2019-02-15T13:52:02.077Z,11.47
2019-02-15T13:54:30.429Z,7.45
2019-02-15T13:56:58.745Z,11.70
2019-02-15T13:59:27.093Z,7.27
2019-02-15T14:01:55.419Z,7.93
2019-02-15T14:04:23.841Z,7.85
2019-02-15T14:06:53.923Z,6.40
2019-02-15T14:09:22.409Z,6.10
2019-02-15T14:11:50.778Z,8.50
2019-02-15T14:14:19.159Z,8.83
2019-02-15T14:16:47.572Z,7.87
2019-02-15T14:19:15.908Z,8.33
2019-02-15T14:21:44.775Z,8.10
2019-02-15T14:24:13.285Z,5.20
2019-02-15T14:26:41.624Z,8.37
2019-02-15T14:29:10.014Z,8.93
2019-02-15T14:31:38.414Z,7.63
2019-02-15T14:34:07.073Z,7.33
2019-02-15T14:36:35.413Z,7.13
2019-02-15T14:39:06.687Z,6.85
2019-02-15T14:41:34.980Z,8.07
2019-02-15T14:44:03.380Z,6.00
2019-02-15T14:46:31.702Z,9.33
2019-02-15T14:49:00.101Z,7.83
2019-02-15T14:51:28.419Z,15.30
2019-02-15T14:53:56.783Z,6.05
2019-02-15T14:56:25.161Z,5.60
2019-02-15T14:58:53.504Z,6.17
2019-02-15T15:01:21.855Z,6.93
2019-02-15T15:03:50.167Z,4.87
2019-02-15T15:06:18.518Z,6.20
2019-02-15T15:08:46.936Z,4.23
2019-02-15T15:11:15.327Z,6.90
2019-02-15T15:13:43.709Z,10.57
2019-02-15T15:16:12.038Z,5.25
2019-02-15T15:18:40.363Z,11.03
2019-02-15T15:21:08.817Z,5.47
2019-02-15T15:23:37.141Z,5.07
2019-02-15T15:26:11.590Z,6.20
2019-02-15T15:28:35.790Z,8.53
2019-02-15T15:31:04.238Z,7.20
2019-02-15T15:33:32.557Z,7.80
2019-02-15T15:36:00.929Z,4.47
2019-02-15T15:38:29.232Z,5.23
2019-02-15T15:40:57.586Z,6.23
2019-02-15T15:43:25.985Z,5.27
2019-02-15T15:45:54.362Z,5.15
2019-02-15T15:48:23.078Z,6.70
2019-02-15T15:50:51.503Z,5.03
2019-02-15T15:53:19.861Z,7.80
2019-02-15T15:55:48.371Z,6.22
2019-02-15T15:58:16.865Z,8.43
2019-02-15T16:00:45.190Z,12.13
2019-02-15T16:03:13.527Z,13.63
2019-02-15T16:05:41.870Z,5.73
2019-02-15T16:08:10.218Z,10.27
2019-02-15T16:10:38.528Z,13.03
2019-02-15T16:13:07.107Z,13.00
2019-02-15T16:15:35.600Z,6.43
2019-02-15T16:18:04.208Z,13.83
2019-02-15T16:20:32.554Z,12.70
2019-02-15T16:23:01.422Z,8.53
2019-02-15T16:25:32.109Z,7.07
2019-02-15T16:28:00.519Z,7.35
2019-02-15T16:30:28.919Z,6.00
2019-02-15T16:32:57.309Z,8.57
2019-02-15T16:35:25.614Z,6.50
2019-02-15T16:37:53.994Z,10.95
2019-02-15T16:40:22.333Z,7.67
2019-02-15T16:42:50.872Z,9.37
2019-02-15T16:45:19.432Z,8.00
2019-02-15T16:47:48.031Z,5.30
2019-02-15T16:50:16.392Z,10.37
2019-02-15T16:52:44.738Z,6.10
2019-02-15T16:55:13.600Z,8.63
2019-02-15T16:57:43.512Z,10.60
2019-02-15T17:00:13.068Z,7.85
2019-02-15T17:02:41.548Z,12.00
2019-02-15T17:05:10.311Z,8.80
2019-02-15T17:07:38.665Z,11.97
2019-02-15T17:10:09.442Z,9.47
2019-02-15T17:12:38.687Z,7.63
2019-02-15T17:15:10.264Z,13.10
2019-02-15T17:17:38.612Z,7.77
2019-02-15T17:20:09.379Z,11.47
2019-02-15T17:22:37.722Z,8.70
2019-02-15T17:25:08.409Z,11.25
2019-02-15T17:27:36.733Z,15.10
2019-02-15T17:30:08.025Z,27.10
2019-02-15T17:32:36.358Z,10.77
2019-02-15T17:35:07.183Z,13.33
2019-02-15T17:37:35.523Z,10.95
2019-02-15T17:40:07.914Z,18.70
2019-02-15T17:42:36.230Z,9.50
2019-02-15T17:45:06.632Z,16.50
2019-02-15T17:47:34.969Z,10.00
2019-02-15T17:50:03.871Z,12.93
2019-02-15T17:52:32.206Z,12.50
2019-02-15T17:55:00.564Z,9.63
2019-02-15T17:57:28.950Z,12.37
2019-02-15T17:59:57.284Z,12.27
2019-02-15T18:02:25.630Z,11.63
2019-02-15T18:04:53.972Z,15.50
2019-02-15T18:07:22.331Z,9.30
2019-02-15T18:09:50.683Z,9.17
2019-02-15T18:12:19.027Z,13.77
2019-02-15T18:14:47.379Z,11.90
2019-02-15T18:17:16.370Z,17.47
2019-02-15T18:19:47.273Z,19.32
2019-02-15T18:22:15.085Z,13.50
2019-02-15T18:24:43.429Z,14.07
2019-02-15T18:27:11.957Z,14.40
2019-02-15T18:29:40.277Z,11.27
2019-02-15T18:32:08.881Z,15.70
2019-02-15T18:34:37.223Z,13.00
2019-02-15T18:37:05.669Z,16.00
2019-02-15T18:39:34.003Z,12.23
2019-02-15T18:42:02.411Z,22.77
2019-02-15T18:44:30.809Z,17.03
2019-02-15T18:46:59.175Z,15.43
2019-02-15T18:49:27.528Z,17.43
2019-02-15T18:51:56.081Z,27.27
2019-02-15T18:54:24.435Z,15.07
2019-02-15T18:56:52.821Z,25.15
2019-02-15T18:59:21.385Z,25.97
2019-02-15T19:01:49.818Z,22.87
2019-02-15T19:04:18.125Z,21.83
2019-02-15T19:06:46.474Z,17.20
2019-02-15T19:09:14.805Z,19.60
2019-02-15T19:11:43.233Z,15.13
2019-02-15T19:14:12.041Z,15.13
2019-02-15T19:16:40.332Z,20.43
2019-02-15T19:19:08.691Z,19.17
2019-02-15T19:21:37.023Z,15.87
2019-02-15T19:24:05.397Z,19.00
2019-02-15T19:26:33.700Z,17.60
2019-02-15T19:29:02.043Z,16.40
2019-02-15T19:31:30.381Z,15.20
2019-02-15T19:33:58.814Z,19.87
2019-02-15T19:36:27.144Z,21.93
2019-02-15T19:38:55.489Z,18.20
2019-02-15T19:41:24.045Z,18.10
2019-02-15T19:43:52.614Z,15.80
2019-02-15T19:46:24.133Z,17.73
2019-02-15T19:48:54.702Z,24.10
2019-02-15T19:51:24.259Z,16.30
2019-02-15T19:53:52.629Z,17.10
2019-02-15T19:56:21.091Z,15.70
2019-02-15T19:58:49.535Z,18.53
2019-02-15T20:01:17.964Z,20.10
2019-02-15T20:03:46.301Z,14.40
2019-02-15T20:06:15.011Z,31.27
2019-02-15T20:08:43.904Z,16.25
2019-02-15T20:11:12.441Z,17.67
2019-02-15T20:13:40.827Z,15.98
2019-02-15T20:16:09.936Z,14.65
2019-02-15T20:18:38.961Z,20.10
2019-02-15T20:21:09.671Z,13.07
2019-02-15T20:23:40.047Z,15.85
2019-02-15T20:26:08.390Z,13.40
2019-02-15T20:28:37.111Z,20.52
2019-02-15T20:31:05.715Z,11.50
2019-02-15T20:33:34.634Z,11.43
2019-02-15T20:36:05.939Z,13.20
2019-02-15T20:38:35.363Z,20.30
2019-02-15T20:41:04.154Z,12.57
2019-02-15T20:43:33.764Z,13.32
2019-02-15T20:46:02.146Z,12.23
2019-02-15T20:48:30.558Z,14.73
2019-02-15T20:50:59.070Z,12.35
2019-02-15T20:53:27.773Z,16.17
2019-02-15T20:55:56.121Z,12.83
2019-02-15T20:58:24.580Z,12.20
2019-02-15T21:00:53.079Z,11.83
2019-02-15T21:03:21.390Z,13.00
2019-02-15T21:05:50.064Z,16.13
2019-02-15T21:08:18.505Z,12.63
2019-02-15T21:10:54.564Z,14.07
2019-02-15T21:13:20.413Z,11.53
2019-02-15T21:15:47.632Z,10.88
2019-02-15T21:18:15.972Z,14.77
2019-02-15T21:20:44.490Z,11.83
2019-02-15T21:23:13.165Z,11.30
2019-02-15T21:25:41.517Z,12.37
2019-02-15T21:28:10.651Z,13.97
2019-02-15T21:30:39.024Z,13.03
2019-02-15T21:33:07.381Z,12.87
2019-02-15T21:35:35.683Z,14.83
2019-02-15T21:38:04.106Z,14.20
2019-02-15T21:40:32.432Z,13.43
2019-02-15T21:43:00.771Z,18.83
2019-02-15T21:45:29.113Z,12.03
2019-02-15T21:47:57.446Z,21.13
2019-02-15T21:50:25.822Z,15.93
2019-02-15T21:52:54.163Z,22.00
2019-02-15T21:55:22.494Z,15.33
2019-02-15T21:57:50.880Z,17.17
2019-02-15T22:00:20.954Z,18.00
2019-02-15T22:02:49.387Z,15.07
2019-02-15T22:05:18.157Z,14.60
2019-02-15T22:07:46.549Z,17.10
2019-02-15T22:10:15.130Z,19.50
2019-02-15T22:12:43.497Z,18.48
2019-02-15T22:15:13.924Z,19.93
2019-02-15T22:17:42.348Z,21.87
2019-02-15T22:20:13.066Z,16.95
2019-02-15T22:22:41.364Z,20.40
2019-02-15T22:25:10.179Z,23.20
2019-02-15T22:27:38.483Z,18.15
2019-02-15T22:30:12.994Z,17.70
2019-02-15T22:32:42.584Z,16.50
2019-02-15T22:35:11.896Z,16.25
2019-02-15T22:37:40.351Z,18.00
2019-02-15T22:40:17.152Z,18.43
2019-02-15T22:42:45.505Z,16.97
2019-02-15T22:45:14.293Z,21.50
2019-02-15T22:47:42.668Z,21.93
2019-02-15T22:50:11.659Z,20.07
2019-02-15T22:52:39.990Z,20.95
2019-02-15T22:55:08.522Z,25.43
2019-02-15T22:57:36.837Z,20.67
2019-02-15T23:00:12.943Z,17.00
2019-02-15T23:02:40.041Z,18.57
2019-02-15T23:05:09.995Z,19.00
2019-02-15T23:07:38.336Z,25.40
2019-02-15T23:10:08.277Z,19.03
2019-02-15T23:12:36.660Z,17.37
2019-02-15T23:15:05.922Z,20.87
2019-02-15T23:17:34.279Z,17.20
2019-02-15T23:20:02.588Z,18.93
2019-02-15T23:22:30.946Z,18.37
2019-02-15T23:24:59.277Z,19.10
2019-02-15T23:27:27.705Z,15.17
2019-02-15T23:29:56.025Z,17.33
2019-02-15T23:32:24.380Z,17.43
2019-02-15T23:34:52.689Z,15.40
2019-02-15T23:37:21.109Z,15.40
2019-02-15T23:39:49.426Z,12.87
2019-02-15T23:42:17.755Z,14.93
2019-02-15T23:44:46.083Z,15.67
2019-02-15T23:47:14.427Z,14.50
2019-02-15T23:49:42.772Z,16.37
2019-02-15T23:52:11.368Z,17.23
2019-02-15T23:54:39.710Z,15.07
2019-02-15T23:57:08.156Z,16.07
2019-02-15T23:59:36.486Z,17.30
